Time;durP1;ratioP1;P1;durP2;ratioP2;P2;SDS_P1;SDS_P2;PMS_P1;PMS_P2;Temp;Humidity;BMP_temperature;BMP_pressure;BME280_temperature;BME280_humidity;BME280_pressure;Samples;Min_cycle;Max_cycle;Signal;HPM_P1;HPM_P2
2022/08/11 00:01:01;;;;;;;2.70;2.50;;;18.30;91.10;;;;;;494002;241;28914;-68
2022/08/11 00:03:02;;;;;;;2.30;2.20;;;18.40;90.40;;;;;;494023;241;28838;-70
2022/08/11 00:05:04;;;;;;;2.20;2.10;;;18.40;90.50;;;;;;494032;241;28805;-67
2022/08/11 00:07:05;;;;;;;2.47;2.37;;;18.40;91.00;;;;;;493918;241;28850;-68
2022/08/11 00:09:07;;;;;;;2.20;2.10;;;18.30;91.40;;;;;;494018;241;28843;-72
2022/08/11 00:11:09;;;;;;;2.27;2.17;;;18.30;91.40;;;;;;494048;241;28946;-69
2022/08/11 00:13:10;;;;;;;2.00;1.90;;;18.20;91.50;;;;;;494029;241;28779;-68
2022/08/11 00:15:11;;;;;;;2.17;2.07;;;18.20;91.70;;;;;;493985;241;29384;-68
2022/08/11 00:17:13;;;;;;;3.17;2.10;;;18.10;92.00;;;;;;493944;241;29335;-69
2022/08/11 00:19:14;;;;;;;2.20;2.10;;;18.10;92.20;;;;;;494004;241;29290;-68
2022/08/11 00:21:15;;;;;;;2.03;1.93;;;18.00;92.20;;;;;;493948;241;29335;-67
2022/08/11 00:23:16;;;;;;;2.37;2.17;;;18.00;92.30;;;;;;493973;241;28787;-68
2022/08/11 00:25:18;;;;;;;2.10;2.00;;;18.00;92.40;;;;;;494021;241;28795;-68
2022/08/11 00:27:19;;;;;;;2.00;1.90;;;18.00;92.50;;;;;;494009;241;28907;-70
2022/08/11 00:29:20;;;;;;;2.20;2.10;;;18.00;92.50;;;;;;494041;241;28871;-68
2022/08/11 00:31:22;;;;;;;2.40;2.30;;;18.00;92.60;;;;;;494037;241;28942;-68
2022/08/11 00:33:23;;;;;;;2.00;1.90;;;17.90;92.70;;;;;;494019;241;28815;-68
2022/08/11 00:35:24;;;;;;;2.17;2.07;;;17.90;92.70;;;;;;493949;241;28799;-68
2022/08/11 00:37:25;;;;;;;2.23;2.03;;;17.90;92.80;;;;;;493948;241;28895;-71
2022/08/11 00:39:26;;;;;;;2.10;2.00;;;17.90;92.90;;;;;;493986;241;29364;-68
2022/08/11 00:41:28;;;;;;;2.10;2.00;;;17.80;92.90;;;;;;493984;241;29366;-68
2022/08/11 00:43:29;;;;;;;2.03;1.93;;;17.80;93.10;;;;;;493990;241;29263;-67
2022/08/11 00:45:30;;;;;;;2.17;2.03;;;17.80;93.00;;;;;;493992;241;29257;-68
2022/08/11 00:47:34;;;;;;;1.90;1.80;;;17.80;93.00;;;;;;493968;241;28838;-72
2022/08/11 00:49:33;;;;;;;1.97;1.87;;;17.70;93.00;;;;;;493831;241;28802;-68
2022/08/11 00:51:34;;;;;;;2.30;2.20;;;17.80;93.00;;;;;;494004;241;28983;-70
2022/08/11 00:53:35;;;;;;;2.30;2.20;;;17.80;92.50;;;;;;493994;241;28783;-67
2022/08/11 00:55:36;;;;;;;2.70;2.50;;;17.80;92.20;;;;;;494017;241;28791;-69
2022/08/11 00:57:38;;;;;;;2.30;2.20;;;17.80;91.90;;;;;;493963;241;28832;-71
2022/08/11 00:59:39;;;;;;;2.27;2.17;;;17.90;91.80;;;;;;493980;241;28815;-67
2022/08/11 01:01:40;;;;;;;2.33;2.23;;;18.00;92.40;;;;;;494021;241;28943;-68
2022/08/11 01:03:41;;;;;;;2.60;2.50;;;17.90;92.70;;;;;;494005;239;28840;-68
2022/08/11 01:05:43;;;;;;;2.27;2.17;;;17.90;92.70;;;;;;494025;241;29259;-68
2022/08/11 01:07:44;;;;;;;2.70;2.50;;;17.70;93.30;;;;;;493968;237;29420;-71
2022/08/11 01:09:45;;;;;;;2.70;2.50;;;17.30;93.80;;;;;;493954;241;29368;-68
2022/08/11 01:11:46;;;;;;;2.40;2.30;;;17.00;94.30;;;;;;494015;241;28822;-69
2022/08/11 01:13:48;;;;;;;2.50;2.30;;;16.80;94.60;;;;;;493960;241;28809;-67
2022/08/11 01:15:49;;;;;;;2.53;2.43;;;16.70;94.70;;;;;;494014;241;28806;-68
2022/08/11 01:17:50;;;;;;;2.60;2.50;;;16.70;94.70;;;;;;493994;241;28856;-72
2022/08/11 01:19:51;;;;;;;2.30;2.20;;;16.50;94.90;;;;;;494048;241;28849;-68
2022/08/11 01:21:53;;;;;;;2.53;2.40;;;16.40;95.20;;;;;;494031;241;28830;-68
2022/08/11 01:23:54;;;;;;;2.67;2.47;;;16.40;95.50;;;;;;494007;241;28800;-68
2022/08/11 01:25:55;;;;;;;2.57;2.47;;;16.40;95.80;;;;;;494041;241;28867;-68
2022/08/11 01:27:56;;;;;;;2.70;2.50;;;16.30;96.20;;;;;;493967;241;28918;-69
2022/08/11 01:29:58;;;;;;;2.70;2.50;;;16.30;96.90;;;;;;494010;241;28783;-68
2022/08/11 01:31:59;;;;;;;2.90;2.70;;;16.30;96.80;;;;;;494038;241;28902;-69
2022/08/11 01:34:00;;;;;;;2.50;2.40;;;16.20;95.90;;;;;;493998;241;28787;-68
2022/08/11 01:36:01;;;;;;;2.60;2.50;;;16.10;96.00;;;;;;493900;237;29303;-69
2022/08/11 01:38:04;;;;;;;2.83;2.63;;;16.10;96.40;;;;;;493906;241;29296;-70
2022/08/11 01:40:04;;;;;;;7.17;2.50;;;16.10;96.40;;;;;;493926;241;29267;-67
2022/08/11 01:44:37;;;;;;;2.40;2.30;;;15.90;97.20;;;;;;494035;241;28952;-70
2022/08/11 01:46:38;;;;;;;2.60;2.50;;;16.00;97.50;;;;;;493997;241;28798;-67
2022/08/11 01:48:39;;;;;;;2.63;2.50;;;15.90;97.60;;;;;;494017;239;28814;-70
2022/08/11 01:50:40;;;;;;;2.33;2.23;;;15.90;97.50;;;;;;494011;241;28812;-68
2022/08/11 01:52:42;;;;;;;2.90;2.60;;;15.90;97.40;;;;;;494002;241;28846;-68
2022/08/11 01:54:43;;;;;;;2.57;2.47;;;15.90;97.20;;;;;;494037;241;28852;-72
2022/08/11 01:56:44;;;;;;;2.23;2.13;;;15.80;97.20;;;;;;493997;241;28793;-68
2022/08/11 01:58:46;;;;;;;2.37;2.17;;;15.70;97.00;;;;;;494024;241;29321;-68
2022/08/11 02:00:47;;;;;;;2.40;2.30;;;15.70;97.10;;;;;;494043;241;29230;-68
2022/08/11 02:02:52;;;;;;;2.20;2.10;;;15.70;97.10;;;;;;494043;241;29293;-68
2022/08/11 02:04:49;;;;;;;2.60;2.40;;;15.60;97.30;;;;;;493707;241;29340;-70
2022/08/11 02:06:53;;;;;;;2.40;2.20;;;15.50;97.50;;;;;;493995;241;28832;-67
2022/08/11 02:08:54;;;;;;;2.70;2.50;;;15.50;97.40;;;;;;494005;241;28799;-67
2022/08/11 02:13:15;;;;;;;2.70;2.50;;;15.60;97.30;;;;;;494005;241;28804;-67
2022/08/11 02:15:16;;;;;;;2.43;2.33;;;15.70;97.30;;;;;;493985;241;28825;-67
2022/08/11 02:17:19;;;;;;;2.40;2.30;;;15.80;97.20;;;;;;493967;241;28826;-68
2022/08/11 02:23:50;;;;;;;2.73;2.60;;;15.80;97.70;;;;;;484556;245;28756;-68
2022/08/11 02:25:52;;;;;;;2.50;2.40;;;15.70;97.90;;;;;;491490;241;28852;-67
2022/08/11 02:27:53;;;;;;;2.23;2.13;;;15.70;98.00;;;;;;493794;241;28816;-67
2022/08/11 02:29:54;;;;;;;2.70;2.50;;;15.70;97.80;;;;;;493838;241;28936;-71
2022/08/11 02:34:15;;;;;;;3.13;2.83;;;15.60;98.00;;;;;;493994;241;28835;-68
2022/08/11 02:36:19;;;;;;;2.57;2.47;;;15.50;98.30;;;;;;493703;241;29323;-71
2022/08/11 02:38:17;;;;;;;2.50;2.40;;;15.50;98.30;;;;;;493810;241;29326;-68
2022/08/11 02:40:22;;;;;;;2.70;2.60;;;15.40;98.50;;;;;;494033;241;29325;-69
2022/08/11 02:42:23;;;;;;;2.30;2.20;;;15.50;98.60;;;;;;493778;241;29430;-67
2022/08/11 02:44:24;;;;;;;2.50;2.40;;;15.50;98.70;;;;;;494015;241;28879;-67
2022/08/11 02:46:25;;;;;;;2.77;2.57;;;15.50;98.70;;;;;;493813;241;28816;-68
2022/08/11 02:50:46;;;;;;;2.80;2.60;;;15.50;98.50;;;;;;494030;241;28806;-67
2022/08/11 02:52:47;;;;;;;2.27;2.17;;;15.60;98.70;;;;;;493987;241;28908;-69
2022/08/11 02:54:48;;;;;;;2.50;2.40;;;15.50;98.80;;;;;;493986;241;28902;-68
2022/08/11 02:56:51;;;;;;;2.70;2.50;;;15.40;98.70;;;;;;493906;241;28787;-68
2022/08/11 02:59:49;;;;;;;2.67;2.40;;;15.30;99.00;;;;;;493972;241;28919;-71
2022/08/11 03:00:52;;;;;;;5.23;2.67;;;15.20;99.10;;;;;;492204;241;28834;-67
2022/08/11 03:02:53;;;;;;;2.47;2.33;;;15.20;99.30;;;;;;494031;241;28924;-68
2022/08/11 03:04:55;;;;;;;2.40;2.30;;;15.30;99.30;;;;;;494020;241;28805;-67
2022/08/11 03:06:56;;;;;;;2.40;2.30;;;15.30;99.30;;;;;;493830;241;29285;-67
2022/08/11 03:08:57;;;;;;;2.63;2.53;;;15.20;99.30;;;;;;494027;241;29315;-70
2022/08/11 03:17:45;;;;;;;2.20;2.10;;;15.30;99.30;;;;;;493845;241;28805;-67
2022/08/11 03:19:46;;;;;;;2.33;2.23;;;15.40;99.00;;;;;;493991;241;28815;-67
2022/08/11 03:21:47;;;;;;;2.20;2.10;;;15.40;99.10;;;;;;494045;241;29403;-71
2022/08/11 03:23:49;;;;;;;2.20;2.10;;;15.30;99.50;;;;;;494010;241;29238;-68
2022/08/11 03:25:50;;;;;;;2.50;2.30;;;15.20;99.70;;;;;;493979;241;29393;-68
2022/08/11 03:27:51;;;;;;;2.37;2.27;;;15.20;99.90;;;;;;493972;241;29280;-67
2022/08/11 03:29:52;;;;;;;2.50;2.30;;;15.20;99.90;;;;;;494037;241;28838;-68
2022/08/11 03:31:54;;;;;;;2.03;1.93;;;15.20;99.90;;;;;;494024;241;29378;-70
2022/08/11 03:34:04;;;;;;;2.30;2.20;;;15.20;99.90;;;;;;494009;241;29302;-68
2022/08/11 03:36:02;;;;;;;2.47;2.27;;;15.20;99.90;;;;;;493620;241;28851;-69
2022/08/11 03:38:03;;;;;;;2.30;2.20;;;15.20;99.90;;;;;;493979;237;29795;-71
2022/08/11 03:40:05;;;;;;;3.37;2.70;;;15.10;99.90;;;;;;494010;241;29238;-72
2022/08/11 03:42:06;;;;;;;3.00;2.67;;;15.10;99.90;;;;;;494005;241;29366;-70
2022/08/11 03:44:07;;;;;;;2.63;2.43;;;15.20;99.90;;;;;;494010;241;28890;-67
2022/08/11 03:46:08;;;;;;;2.27;2.17;;;15.20;99.90;;;;;;493950;241;28820;-68
2022/08/11 03:48:12;;;;;;;2.33;2.20;;;15.20;99.90;;;;;;494040;241;28967;-70
2022/08/11 03:50:13;;;;;;;2.43;2.33;;;15.10;99.90;;;;;;493942;241;28940;-68
2022/08/11 03:52:14;;;;;;;2.70;2.50;;;15.10;99.90;;;;;;494010;241;28792;-67
2022/08/11 03:54:15;;;;;;;2.43;2.33;;;15.00;99.90;;;;;;494041;241;29357;-67
2022/08/11 03:56:17;;;;;;;2.47;2.37;;;14.90;99.90;;;;;;493904;241;29327;-70
2022/08/11 03:58:17;;;;;;;2.50;2.40;;;14.90;99.90;;;;;;493917;241;29354;-68
2022/08/11 04:00:19;;;;;;;2.40;2.30;;;14.90;99.90;;;;;;493993;241;28852;-68
2022/08/11 04:02:20;;;;;;;2.87;2.67;;;14.90;99.90;;;;;;493995;241;28821;-68
2022/08/11 04:04:21;;;;;;;2.50;2.40;;;15.00;99.90;;;;;;494037;241;28954;-68
2022/08/11 04:06:22;;;;;;;2.40;2.30;;;14.90;99.90;;;;;;493966;241;28916;-71
2022/08/11 04:08:24;;;;;;;2.77;2.57;;;14.90;99.90;;;;;;494019;241;28791;-67
2022/08/11 04:10:25;;;;;;;2.50;2.40;;;14.80;99.90;;;;;;493975;241;28841;-67
2022/08/11 04:12:26;;;;;;;2.60;2.50;;;14.80;99.90;;;;;;494007;241;28835;-67
2022/08/11 04:16:47;;;;;;;2.67;2.53;;;14.50;99.90;;;;;;493961;241;28824;-68
2022/08/11 04:18:48;;;;;;;2.90;2.70;;;14.50;99.90;;;;;;493988;241;28871;-67
2022/08/11 04:20:49;;;;;;;2.60;2.40;;;14.50;99.90;;;;;;494029;241;28801;-68
2022/08/11 04:22:51;;;;;;;2.80;2.60;;;14.60;99.90;;;;;;494035;241;28608;-69
2022/08/11 04:24:52;;;;;;;2.70;2.50;;;14.60;99.90;;;;;;493990;241;28863;-67
2022/08/11 04:26:53;;;;;;;2.50;2.30;;;14.60;99.90;;;;;;493957;241;28831;-68
2022/08/11 04:28:55;;;;;;;2.70;2.50;;;14.60;99.90;;;;;;494002;241;29288;-67
2022/08/11 04:30:56;;;;;;;3.10;2.90;;;14.60;99.90;;;;;;494040;241;29327;-68
2022/08/11 04:32:57;;;;;;;2.90;2.70;;;14.60;99.90;;;;;;494027;241;29323;-69
2022/08/11 04:34:58;;;;;;;3.40;3.10;;;14.70;99.90;;;;;;494020;241;29372;-67
2022/08/11 04:39:19;;;;;;;3.07;2.87;;;14.60;99.90;;;;;;493977;241;28847;-67
2022/08/11 04:41:20;;;;;;;2.97;2.70;;;14.70;99.90;;;;;;494053;241;28807;-67
2022/08/11 04:43:21;;;;;;;2.93;2.70;;;14.70;99.90;;;;;;494059;241;28816;-69
2022/08/11 04:45:22;;;;;;;2.67;2.47;;;14.60;99.90;;;;;;494036;241;28835;-68
2022/08/11 05:03:41;;;;;;;3.50;2.73;;;14.70;99.90;;;;;;494025;241;28794;-67
2022/08/11 05:05:42;;;;;;;2.73;2.60;;;14.70;99.90;;;;;;493986;241;29398;-67
2022/08/11 05:07:44;;;;;;;3.23;3.03;;;14.80;99.90;;;;;;493953;241;30131;-67
2022/08/11 05:09:45;;;;;;;2.90;2.77;;;14.80;99.90;;;;;;493980;241;29256;-68
2022/08/11 05:11:46;;;;;;;3.30;2.80;;;14.80;99.90;;;;;;494051;241;28851;-69
2022/08/11 05:34:50;;;;;;;3.07;2.87;;;15.20;99.90;;;;;;494015;241;28922;-68
2022/08/11 05:36:50;;;;;;;2.83;2.63;;;15.20;99.90;;;;;;493640;241;28802;-67
2022/08/11 05:57:27;;;;;;;2.90;2.80;;;15.40;99.90;;;;;;493991;241;29302;-71
2022/08/11 05:59:28;;;;;;;2.70;2.50;;;15.60;99.90;;;;;;494037;241;29267;-68
2022/08/11 06:01:30;;;;;;;2.67;2.50;;;15.70;99.90;;;;;;494041;241;29331;-68
2022/08/11 06:03:31;;;;;;;2.97;2.77;;;15.80;99.90;;;;;;494013;241;29266;-67
2022/08/11 06:05:32;;;;;;;2.87;2.67;;;15.90;99.90;;;;;;493985;241;28931;-68
2022/08/11 06:07:33;;;;;;;3.20;3.00;;;16.00;99.90;;;;;;493947;241;28865;-67
2022/08/11 06:09:35;;;;;;;2.87;2.67;;;16.10;99.90;;;;;;493975;241;28869;-67
2022/08/11 06:11:36;;;;;;;2.90;2.60;;;16.20;99.90;;;;;;494026;241;28946;-70
2022/08/11 06:13:37;;;;;;;2.30;2.20;;;16.20;99.90;;;;;;494008;241;28897;-68
2022/08/11 06:15:39;;;;;;;2.70;2.50;;;16.30;99.90;;;;;;494004;241;28843;-68
2022/08/11 06:17:40;;;;;;;2.90;2.70;;;16.40;99.90;;;;;;493884;241;29224;-68
2022/08/11 06:19:41;;;;;;;2.50;2.40;;;16.50;99.90;;;;;;494048;241;28789;-68
2022/08/11 06:21:42;;;;;;;2.90;2.70;;;16.60;99.90;;;;;;494029;241;28871;-70
2022/08/11 06:23:43;;;;;;;3.13;2.93;;;16.60;99.90;;;;;;494011;241;29460;-68
2022/08/11 06:25:45;;;;;;;3.60;3.30;;;17.20;99.90;;;;;;494042;241;29295;-69
2022/08/11 06:27:47;;;;;;;3.23;3.03;;;17.50;99.90;;;;;;493981;241;29263;-68
2022/08/11 06:29:47;;;;;;;3.03;2.83;;;18.00;99.90;;;;;;494005;241;28889;-68
2022/08/11 06:31:50;;;;;;;3.70;3.40;;;18.40;99.60;;;;;;494086;241;28860;-69
2022/08/11 06:33:50;;;;;;;3.53;3.23;;;18.60;98.70;;;;;;494023;241;28803;-69
2022/08/11 06:35:51;;;;;;;3.53;3.20;;;18.90;98.30;;;;;;493854;241;28834;-69
2022/08/11 06:37:52;;;;;;;3.87;3.60;;;19.00;98.40;;;;;;493962;241;28932;-68
2022/08/11 06:39:53;;;;;;;3.40;3.20;;;19.10;97.60;;;;;;493978;241;28915;-68
2022/08/11 06:41:55;;;;;;;9.20;3.57;;;19.10;97.80;;;;;;494025;241;28841;-73
2022/08/11 06:43:56;;;;;;;4.23;3.57;;;19.10;97.60;;;;;;494031;241;28865;-68
2022/08/11 06:46:01;;;;;;;6.70;3.67;;;19.30;97.10;;;;;;494030;241;28842;-69
2022/08/11 06:48:01;;;;;;;4.00;3.70;;;19.30;97.00;;;;;;493646;241;30243;-68
2022/08/11 06:52:19;;;;;;;4.13;3.70;;;19.50;96.80;;;;;;494017;241;28845;-69
2022/08/11 06:54:21;;;;;;;4.20;3.70;;;19.50;96.50;;;;;;494042;241;28806;-70
2022/08/11 07:01:01;;;;;;;3.57;3.27;;;19.70;96.50;;;;;;494027;241;29565;-73
2022/08/11 07:03:02;;;;;;;3.60;3.30;;;19.80;96.30;;;;;;494019;241;28935;-68
2022/08/11 07:05:06;;;;;;;10.27;3.70;;;19.90;96.30;;;;;;494009;241;28877;-70
2022/08/11 07:16:23;;;;;;;8.00;3.73;;;20.20;95.70;;;;;;493957;241;30269;-68
2022/08/11 07:29:53;;;;;;;3.30;3.10;;;20.80;95.00;;;;;;484572;245;28749;-70
2022/08/11 07:31:54;;;;;;;9.33;3.67;;;20.80;94.80;;;;;;491786;241;28861;-73
2022/08/11 07:33:56;;;;;;;6.03;3.20;;;20.80;95.10;;;;;;494029;241;28806;-68
2022/08/11 07:35:56;;;;;;;3.13;2.93;;;20.80;94.70;;;;;;493829;241;28838;-69
2022/08/11 07:37:58;;;;;;;6.40;3.20;;;20.80;94.30;;;;;;493985;241;29315;-69
2022/08/11 07:39:59;;;;;;;4.30;3.00;;;20.90;94.30;;;;;;494027;241;29387;-69
2022/08/11 07:42:00;;;;;;;4.27;3.43;;;20.90;94.50;;;;;;494003;241;29414;-69
2022/08/11 07:44:11;;;;;;;4.23;3.37;;;20.90;94.70;;;;;;494044;241;28789;-69
2022/08/11 07:53:01;;;;;;;3.43;3.13;;;21.20;93.90;;;;;;494057;241;28848;-70
2022/08/11 07:55:02;;;;;;;3.43;3.13;;;21.30;94.10;;;;;;494010;241;29241;-69
2022/08/11 08:17:59;;;;;;;4.03;3.73;;;22.10;92.80;;;;;;493970;239;28797;-69
2022/08/11 08:20:01;;;;;;;4.33;3.40;;;22.00;92.90;;;;;;494033;237;28791;-69
2022/08/11 08:22:02;;;;;;;3.70;3.23;;;21.90;92.90;;;;;;494040;241;29387;-70
2022/08/11 08:24:03;;;;;;;3.80;3.50;;;21.80;93.50;;;;;;494037;241;29823;-69
2022/08/11 08:26:04;;;;;;;3.30;3.10;;;22.10;93.30;;;;;;493993;241;29336;-70
2022/08/11 08:28:06;;;;;;;3.53;3.33;;;22.30;92.90;;;;;;493994;241;29268;-69
2022/08/11 08:32:26;;;;;;;3.73;3.23;;;22.30;92.60;;;;;;494027;241;29333;-70
2022/08/11 08:34:28;;;;;;;3.80;3.47;;;22.60;92.10;;;;;;493990;241;29378;-68
2022/08/11 08:36:29;;;;;;;5.73;3.13;;;22.50;91.70;;;;;;493868;241;28793;-69
2022/08/11 08:38:30;;;;;;;4.53;3.57;;;22.50;91.90;;;;;;494070;241;28840;-73
2022/08/11 08:40:31;;;;;;;3.40;3.20;;;22.70;91.80;;;;;;494065;241;28801;-69
2022/08/11 08:42:33;;;;;;;7.90;3.20;;;22.80;92.00;;;;;;494040;241;28840;-71
2022/08/11 08:44:34;;;;;;;3.47;3.10;;;22.80;91.40;;;;;;494029;241;28835;-69
2022/08/11 08:46:35;;;;;;;3.80;3.50;;;22.70;91.70;;;;;;493979;239;28821;-70
2022/08/11 08:48:36;;;;;;;3.70;3.40;;;22.70;91.90;;;;;;494061;241;28843;-74
2022/08/11 08:52:58;;;;;;;3.10;2.87;;;23.00;91.20;;;;;;494031;241;29338;-69
2022/08/11 08:54:59;;;;;;;3.30;3.03;;;23.10;90.80;;;;;;494036;241;29302;-72
2022/08/11 08:57:03;;;;;;;2.97;2.77;;;22.90;90.80;;;;;;493987;241;28908;-69
2022/08/11 08:59:01;;;;;;;5.90;3.17;;;23.00;90.40;;;;;;493788;241;28956;-71
2022/08/11 09:01:02;;;;;;;3.47;3.17;;;23.00;90.50;;;;;;494075;241;28797;-69
2022/08/11 09:03:04;;;;;;;4.80;3.23;;;23.00;90.50;;;;;;494023;241;28855;-69
2022/08/11 09:05:06;;;;;;;5.20;3.27;;;23.30;90.00;;;;;;494069;241;28935;-73
2022/08/11 09:07:06;;;;;;;3.80;3.50;;;23.30;90.10;;;;;;493918;241;28790;-70
2022/08/11 09:09:07;;;;;;;3.00;2.80;;;23.30;90.40;;;;;;494036;241;28839;-70
2022/08/11 09:13:28;;;;;;;3.47;2.70;;;23.60;89.00;;;;;;494055;241;28899;-69
2022/08/11 09:15:29;;;;;;;4.53;3.17;;;23.50;89.70;;;;;;494040;241;28820;-72
2022/08/11 09:17:31;;;;;;;2.90;2.60;;;23.50;89.40;;;;;;493910;241;28885;-69
2022/08/11 09:19:32;;;;;;;3.67;3.00;;;23.50;88.90;;;;;;493876;241;28831;-70
2022/08/11 09:21:33;;;;;;;2.80;2.60;;;23.40;89.40;;;;;;493798;241;30050;-69
2022/08/11 09:28:14;;;;;;;3.33;2.80;;;23.60;89.30;;;;;;494057;237;29891;-72
2022/08/11 09:30:15;;;;;;;2.30;2.20;;;23.50;89.10;;;;;;494049;241;29301;-69
2022/08/11 09:32:16;;;;;;;2.50;2.40;;;23.70;87.80;;;;;;494032;241;29408;-70
2022/08/11 09:34:17;;;;;;;3.30;2.37;;;23.80;87.40;;;;;;494005;241;29250;-69
2022/08/11 09:40:54;;;;;;;2.90;2.70;;;23.90;85.60;;;;;;484606;245;29220;-69
2022/08/11 09:45:15;;;;;;;4.13;2.50;;;24.00;86.00;;;;;;494050;241;29320;-69
2022/08/11 09:47:17;;;;;;;2.87;2.60;;;24.00;85.80;;;;;;493960;241;29415;-71
2022/08/11 09:49:17;;;;;;;3.33;3.03;;;24.20;84.40;;;;;;494028;241;29335;-70
2022/08/11 09:51:19;;;;;;;2.80;2.60;;;24.20;82.30;;;;;;494040;241;29354;-70
2022/08/11 09:53:20;;;;;;;2.87;2.57;;;24.50;84.40;;;;;;494038;241;28890;-74
2022/08/11 09:55:21;;;;;;;4.40;2.80;;;24.50;85.30;;;;;;494070;241;28790;-69
2022/08/11 09:59:42;;;;;;;2.80;2.60;;;24.70;83.90;;;;;;494030;241;28802;-69
2022/08/11 10:01:43;;;;;;;6.63;3.00;;;24.60;81.50;;;;;;494024;241;28907;-71
2022/08/11 10:03:44;;;;;;;2.77;2.57;;;24.40;83.90;;;;;;494059;237;28848;-73
2022/08/11 10:08:05;;;;;;;2.73;2.50;;;24.70;83.60;;;;;;493992;241;28834;-72
2022/08/11 10:10:06;;;;;;;2.60;2.40;;;24.80;82.30;;;;;;494065;241;28832;-71
2022/08/11 10:12:08;;;;;;;2.70;2.50;;;25.00;83.00;;;;;;494005;241;28796;-70
2022/08/11 10:16:29;;;;;;;5.93;2.90;;;24.60;82.50;;;;;;494022;241;28930;-71
2022/08/11 10:18:48;;;;;;;6.00;2.87;;;24.80;82.50;;;;;;494055;241;28896;-69
2022/08/11 10:20:43;;;;;;;4.83;3.00;;;24.60;81.90;;;;;;493560;241;29397;-70
2022/08/11 10:27:24;;;;;;;2.90;2.70;;;24.80;82.60;;;;;;493979;241;28816;-69
2022/08/11 10:34:04;;;;;;;5.97;3.57;;;24.80;83.40;;;;;;494038;241;28811;-69
2022/08/11 10:36:05;;;;;;;2.93;2.60;;;24.80;82.90;;;;;;493867;241;28840;-71
2022/08/11 10:38:07;;;;;;;2.63;2.43;;;24.70;82.90;;;;;;494032;241;28793;-69
2022/08/11 10:40:09;;;;;;;3.57;2.63;;;24.80;83.10;;;;;;493996;241;28874;-70
2022/08/11 10:44:28;;;;;;;2.97;2.70;;;24.90;82.90;;;;;;494050;241;28818;-69
2022/08/11 10:48:49;;;;;;;3.43;3.10;;;25.20;84.60;;;;;;494080;241;29758;-72
2022/08/11 11:00:12;;;;;;;4.77;2.60;;;25.00;84.60;;;;;;494026;241;28820;-69
2022/08/11 11:02:12;;;;;;;6.60;2.70;;;25.20;84.50;;;;;;493814;241;28817;-69
2022/08/11 11:04:12;;;;;;;3.10;2.80;;;25.30;84.70;;;;;;493897;241;28844;-72
2022/08/11 11:06:13;;;;;;;2.50;2.30;;;25.60;83.60;;;;;;493974;241;28904;-69
2022/08/11 11:10:34;;;;;;;3.17;2.87;;;25.50;81.60;;;;;;494047;240;28825;-69
2022/08/11 11:19:33;;;;;;;3.20;2.70;;;25.80;82.40;;;;;;494004;241;28824;-70
2022/08/11 11:21:34;;;;;;;3.60;2.70;;;25.80;81.00;;;;;;494044;241;28840;-72
2022/08/11 11:23:36;;;;;;;3.10;2.90;;;25.80;79.30;;;;;;494021;237;28846;-69
2022/08/11 11:25:37;;;;;;;3.37;2.87;;;25.70;79.10;;;;;;493988;241;28858;-71
2022/08/11 11:27:38;;;;;;;4.33;3.00;;;25.50;79.40;;;;;;493972;241;28921;-70
2022/08/11 11:29:39;;;;;;;3.67;2.70;;;25.80;77.90;;;;;;494002;241;28814;-70
2022/08/11 11:31:41;;;;;;;2.53;2.33;;;25.60;77.30;;;;;;494023;241;28958;-70
2022/08/11 11:33:42;;;;;;;2.70;2.50;;;25.60;78.50;;;;;;494030;241;28800;-69
2022/08/11 11:35:43;;;;;;;3.03;2.73;;;25.80;76.90;;;;;;493962;241;29337;-69
2022/08/11 11:37:44;;;;;;;3.43;2.70;;;25.70;78.20;;;;;;493982;241;29378;-69
2022/08/11 11:39:46;;;;;;;2.57;2.37;;;25.80;77.80;;;;;;494040;241;29317;-69
2022/08/11 11:41:47;;;;;;;2.50;2.30;;;25.80;78.20;;;;;;494040;241;29417;-71
2022/08/11 11:43:48;;;;;;;2.20;2.10;;;25.80;76.90;;;;;;494024;239;28813;-70
2022/08/11 11:45:50;;;;;;;3.03;2.67;;;25.80;77.30;;;;;;494025;241;28829;-70
2022/08/11 11:47:51;;;;;;;2.60;2.40;;;25.80;77.30;;;;;;493995;241;28821;-69
2022/08/11 11:49:53;;;;;;;3.10;2.70;;;25.90;77.70;;;;;;494064;241;28883;-69
2022/08/11 11:51:53;;;;;;;2.50;2.30;;;26.00;78.10;;;;;;494044;241;28843;-70
2022/08/11 11:53:54;;;;;;;2.93;2.73;;;26.10;77.80;;;;;;494045;241;28884;-69
2022/08/11 11:55:56;;;;;;;3.87;2.63;;;26.30;76.20;;;;;;494042;241;28838;-70
2022/08/11 12:02:36;;;;;;;2.70;2.50;;;26.30;76.10;;;;;;494035;241;28840;-70
2022/08/11 12:04:37;;;;;;;2.77;2.57;;;26.30;75.70;;;;;;494063;241;28825;-71
2022/08/11 12:06:39;;;;;;;2.30;2.10;;;26.40;74.90;;;;;;493983;241;29233;-69
2022/08/11 12:08:40;;;;;;;4.80;2.20;;;26.30;74.90;;;;;;494025;241;29310;-71
2022/08/11 12:10:41;;;;;;;2.70;2.50;;;26.40;75.40;;;;;;493990;241;29367;-69
2022/08/11 12:15:02;;;;;;;2.73;2.53;;;26.10;75.30;;;;;;494023;241;28855;-70
2022/08/11 12:17:03;;;;;;;2.57;2.37;;;26.00;74.60;;;;;;493909;241;28914;-69
2022/08/11 12:19:04;;;;;;;2.70;2.50;;;26.00;75.80;;;;;;493993;241;28835;-69
2022/08/11 12:21:06;;;;;;;2.60;2.40;;;26.50;75.70;;;;;;494052;241;29315;-73
2022/08/11 12:27:46;;;;;;;2.67;2.43;;;26.70;73.00;;;;;;493981;241;29338;-72
2022/08/11 12:29:47;;;;;;;3.73;2.27;;;26.60;73.40;;;;;;494027;241;29255;-69
2022/08/11 12:31:48;;;;;;;3.10;2.80;;;26.60;72.30;;;;;;494025;241;29392;-70
2022/08/11 12:33:50;;;;;;;2.30;2.20;;;26.50;72.70;;;;;;494012;241;28867;-69
2022/08/11 12:35:51;;;;;;;2.93;2.73;;;26.50;73.10;;;;;;493955;241;28826;-70
2022/08/11 12:37:54;;;;;;;3.63;2.70;;;26.80;72.70;;;;;;493964;241;28848;-72
2022/08/11 12:46:52;;;;;;;2.53;2.33;;;26.70;71.00;;;;;;493953;241;30050;-69
2022/08/11 12:53:33;;;;;;;4.10;2.70;;;26.90;69.80;;;;;;494031;241;28847;-72
2022/08/11 13:04:58;;;;;;;3.10;2.30;;;26.80;67.90;;;;;;484668;244;28813;-70
2022/08/11 13:06:56;;;;;;;2.73;2.53;;;26.60;68.20;;;;;;484381;245;28745;-69
2022/08/11 13:08:57;;;;;;;3.33;2.57;;;26.70;68.90;;;;;;484642;245;28752;-69
2022/08/11 13:13:19;;;;;;;2.40;2.20;;;26.90;69.50;;;;;;484622;244;28735;-69
2022/08/11 13:15:19;;;;;;;2.47;2.27;;;26.80;68.60;;;;;;484551;245;28767;-69
2022/08/11 13:17:21;;;;;;;2.20;2.10;;;26.90;68.00;;;;;;484528;245;29151;-69
2022/08/11 13:19:21;;;;;;;2.60;2.40;;;26.80;68.50;;;;;;484599;245;29302;-72
2022/08/11 13:21:23;;;;;;;3.33;2.10;;;27.00;68.70;;;;;;484644;245;29169;-69
2022/08/11 13:23:24;;;;;;;4.00;2.27;;;26.90;69.10;;;;;;484609;245;28878;-70
2022/08/11 13:25:25;;;;;;;2.40;2.03;;;27.20;68.50;;;;;;484631;245;28763;-71
2022/08/11 13:27:26;;;;;;;2.67;2.47;;;27.20;68.00;;;;;;484551;245;28749;-70
2022/08/11 13:29:28;;;;;;;2.90;2.60;;;27.00;67.10;;;;;;488318;241;28853;-73
2022/08/11 13:31:29;;;;;;;3.43;2.33;;;27.10;66.80;;;;;;494038;241;28800;-69
2022/08/11 13:33:30;;;;;;;4.53;2.80;;;27.00;67.20;;;;;;494056;241;28871;-70
2022/08/11 13:35:31;;;;;;;2.23;2.07;;;27.10;68.20;;;;;;493877;241;28851;-69
2022/08/11 13:37:34;;;;;;;2.53;2.33;;;27.30;67.40;;;;;;493954;241;28831;-69
2022/08/11 13:39:34;;;;;;;4.47;2.40;;;27.30;68.00;;;;;;494048;241;28838;-73
2022/08/11 13:41:38;;;;;;;2.57;2.37;;;27.40;67.70;;;;;;494010;241;29379;-70
2022/08/11 13:43:40;;;;;;;2.80;2.60;;;27.40;66.90;;;;;;494041;241;29274;-69
2022/08/11 13:45:40;;;;;;;2.70;2.50;;;27.30;66.20;;;;;;494075;241;28946;-70
2022/08/11 13:47:42;;;;;;;2.20;2.00;;;27.20;66.10;;;;;;493967;241;28795;-69
2022/08/11 13:49:43;;;;;;;2.93;2.60;;;27.20;67.10;;;;;;494017;241;28866;-69
2022/08/11 13:51:44;;;;;;;2.40;2.20;;;27.30;67.60;;;;;;494056;241;28852;-69
2022/08/11 13:53:46;;;;;;;2.13;2.03;;;27.30;67.20;;;;;;494052;241;28796;-70
2022/08/11 13:55:47;;;;;;;2.43;2.20;;;27.30;65.70;;;;;;494046;241;28876;-71
2022/08/11 13:57:48;;;;;;;4.90;2.57;;;27.30;66.10;;;;;;493975;241;28820;-69
2022/08/11 13:59:49;;;;;;;5.20;2.80;;;27.30;66.60;;;;;;494027;241;28841;-69
2022/08/11 14:01:50;;;;;;;2.70;2.50;;;27.40;66.90;;;;;;494022;237;29338;-72
2022/08/11 14:03:52;;;;;;;2.77;2.50;;;27.40;66.70;;;;;;494027;241;29248;-69
2022/08/11 14:05:55;;;;;;;3.20;2.20;;;27.50;64.20;;;;;;493759;241;29308;-70
2022/08/11 14:07:54;;;;;;;4.10;2.10;;;27.20;64.70;;;;;;493840;241;29359;-69
2022/08/11 14:09:56;;;;;;;4.27;2.40;;;27.20;64.80;;;;;;494035;241;28817;-69
2022/08/11 14:14:16;;;;;;;3.57;3.00;;;27.20;65.20;;;;;;494043;237;29326;-69
2022/08/11 14:16:18;;;;;;;3.00;2.57;;;27.40;66.10;;;;;;493942;241;28836;-70
2022/08/11 14:18:19;;;;;;;3.00;2.80;;;27.50;66.90;;;;;;494013;241;28833;-69
2022/08/11 14:20:20;;;;;;;2.63;2.43;;;27.40;66.80;;;;;;494067;241;28792;-69
2022/08/11 14:22:21;;;;;;;3.17;2.27;;;27.30;66.30;;;;;;494047;241;28903;-71
2022/08/11 14:24:23;;;;;;;2.20;2.10;;;27.40;65.70;;;;;;494017;241;28792;-69